Flight Track Log - Related Links

Times and Time Zones

All times are in EDT time to prevent confusion due to time zone crossing. See the GJS3618 flight status page for this flight to view local times or setup timezone preferences in your user account.

Time Position Orientation Groundspeed Altitude Reporting Facility
EDT Latitude Longitude Course Direction KTS MPH feet Rate Location/Type
Sun 09:08:48 AM 42.0167 -87.7833 75° East 229 264 4,500  Level Chicago TRACON
Sun 09:10:50 AM 42.0708 -87.5828 70° East 320 368 9,700 2,295 Climbing Chicago Center
Sun 09:11:51 AM 42.1167 -87.4689 61° Northeast 347 399 11,500 1,902 Climbing Chicago Center
Sun 09:12:53 AM 42.1667 -87.3425 62° Northeast 378 435 13,600 2,146 Climbing Chicago Center
Sun 09:13:00 AM 42.2609 -87.0673 66° East  Level FlightAware Approximate
Sun 09:13:54 AM 42.1733 -87.1892 87° East 406 467 15,900  Level Chicago Center
Sun 09:14:56 AM 42.1811 -87.0314 86° East 417 480 17,900 2,049 Climbing Chicago Center
Sun 09:15:57 AM 42.1889 -86.8686 86° East 433 498 20,100 2,000 Climbing Chicago Center
Sun 09:16:59 AM 42.1978 -86.7069 86° East 434 499 22,000 1,902 Climbing Chicago Center
Sun 09:18:00 AM 42.2075 -86.5161 86° East 447 514 24,000 1,672 Climbing Chicago Center
Sun 09:19:01 AM 42.2158 -86.3453 86° East 455 524 25,400 1,220 Climbing Chicago Center
Sun 09:20:03 AM 42.2228 -86.1672 87° East 471 542 26,500 1,171 Climbing Chicago Center
Sun 09:21:04 AM 42.2314 -85.9856 86° East 481 554 27,800 1,268 Climbing Chicago Center
Sun 09:22:06 AM 42.2392 -85.7825 87° East 486 559 29,100 1,171 Climbing Chicago Center
Sun 09:23:07 AM 42.2472 -85.5983 87° East 494 568 30,200 1,073 Climbing Chicago Center
Sun 09:24:09 AM 42.2539 -85.4131 87° East 498 573 31,300 1,073 Climbing Chicago Center
Sun 09:25:10 AM 42.2608 -85.2233 87° East 506 582 32,400 1,073 Climbing Chicago Center
Sun 09:26:12 AM 42.2686 -85.0339 87° East 510 587 33,500 1,016 Climbing Chicago Center
Sun 09:27:14 AM 42.2753 -84.8453 87° East 507 583 34,500 927 Climbing Chicago Center
Sun 09:28:15 AM 42.2939 -84.6594 82° East 499 574 35,400 976 Climbing Chicago Center
Sun 09:29:17 AM 42.3139 -84.4367 83° East 501 577 36,500 780 Climbing Chicago Center
Sun 09:30:18 AM 42.3303 -84.2497 83° East 502 578 37,000 244 Climbing Chicago Center
Sun 09:31:20 AM 42.3450 -84.0606 84° East 506 582 37,000  Level Chicago Center
Sun 09:32:21 AM 42.3619 -83.8706 83° East 511 588 37,000 244 Level Chicago Center
Sun 09:33:23 AM 42.3794 -83.6611 83° East 501 577 37,500 639 Climbing Cleveland Center
Sun 09:34:23 AM 42.3922 -83.4903 84° East 501 577 38,300 700 Climbing Cleveland Center
Sun 09:35:23 AM 42.4056 -83.2828 85° East 501 577 38,900 350 Climbing Cleveland Center
Sun 09:36:23 AM 42.4200 -83.1089 84° East 507 583 39,000 50 Climbing Cleveland Center
Sun 09:37:23 AM 42.4344 -82.9153 84° East 513 590 39,000  Level Cleveland Center
Sun 09:38:23 AM 42.4486 -82.7217 84° East 513 590 39,000  Level Cleveland Center
Sun 09:39:23 AM 42.4625 -82.5281 84° East 518 596 39,000  Level Cleveland Center
Sun 09:40:23 AM 42.4761 -82.3369 84° East 518 596 39,000  Level Cleveland Center
Sun 09:41:23 AM 42.4892 -82.1486 85° East 513 590 39,000  Level Cleveland Center
Sun 09:42:23 AM 42.5000 -81.9575 86° East 513 590 39,000  Level Cleveland Center
Sun 09:43:23 AM 42.5167 -81.7494 84° East 507 583 39,000  Level Cleveland Center
Sun 09:44:23 AM 42.5267 -81.5806 85° East 507 583 39,000  Level Cleveland Center
Sun 09:45:23 AM 42.5408 -81.3892 84° East 507 583 39,000  Level Cleveland Center
Sun 09:46:23 AM 42.5503 -81.1975 86° East 507 583 39,000  Level Cleveland Center
Sun 09:48:23 AM 42.5725 -80.8086 85° East 518 596 39,000  Level Cleveland Center
Sun 09:49:23 AM 42.5831 -80.6114 86° East 513 590 39,000  Level Cleveland Center
Sun 09:50:23 AM 42.5956 -80.3997 85° East 513 590 39,000  Level Cleveland Center
Sun 09:51:23 AM 42.6056 -80.1967 86° East 523 602 39,000  Level Cleveland Center
Sun 09:52:23 AM 42.6131 -80.0019 87° East 522 601 39,000  Level Cleveland Center
Sun 09:53:23 AM 42.6264 -79.8017 85° East 522 601 39,000  Level Cleveland Center
Sun 09:54:23 AM 42.6375 -79.6039 86° East 522 601 39,000  Level Cleveland Center
Sun 09:55:23 AM 42.6439 -79.4061 87° East 522 601 39,000  Level Cleveland Center
Sun 09:56:23 AM 42.6542 -79.2083 86° East 522 601 39,000  Level Cleveland Center
Sun 09:57:23 AM 42.6600 -79.0133 88° East 522 601 39,000 -150 Level Cleveland Center
Sun 09:58:23 AM 42.6697 -78.8156 86° East 516 594 38,700 -500 Descending Cleveland Center
Sun 09:59:23 AM 42.6750 -78.6206 88° East 516 594 38,000 -700 Descending Cleveland Center
Sun 10:00:23 AM 42.6819 -78.4283 87° East 516 594 37,300 -700 Descending Cleveland Center
Sun 10:01:23 AM 42.6886 -78.2358 87° East 516 594 36,600 -700 Descending Cleveland Center
Sun 10:02:23 AM 42.6950 -78.0464 87° East 510 587 35,900 -750 Descending Cleveland Center
Sun 10:03:23 AM 42.7011 -77.8539 87° East 510 587 35,100 -800 Descending Cleveland Center
Sun 10:04:23 AM 42.7075 -77.6869 87° East 505 581 34,300 -1,043 Descending Cleveland Center
Sun 10:06:50 AM 42.7167 -77.2225 88° East 513 590 31,500 -1,217 Descending Boston Center
Sun 10:07:50 AM 42.7225 -77.0333 88° East 508 585 30,100 -1,240 Descending Boston Center
Sun 10:08:51 AM 42.7256 -76.8469 89° East 497 572 29,000 -545 Descending Boston Center
Sun 10:09:51 AM 42.7286 -76.6578 89° East 492 566 29,000  Level Boston Center
Sun 10:10:49 AM 42.7333 -76.4686 88° East 498 573 29,000  Level Boston Center
Sun 10:11:49 AM 42.7358 -76.2736 89° East 503 579 29,000  Level Boston Center
Sun 10:12:49 AM 42.7403 -76.0789 88° East 508 585 29,000 -550 Level Boston Center
Sun 10:13:49 AM 42.7422 -75.8839 89° East 514 592 27,900 -1,884 Descending Boston Center
Sun 10:14:50 AM 42.7436 -75.6917 89° East 514 592 25,200 -2,926 Descending Boston Center
Sun 10:15:50 AM 42.7475 -75.4797 88° East 514 592 22,000 -2,926 Descending Boston Center
Sun 10:16:51 AM 42.7458 -75.2986 91° East 503 579 19,300 -2,650 Descending Boston Center
Sun 10:17:50 AM 42.7503 -75.1206 88° East 489 563 16,700 -2,695 Descending Boston Center
Sun 10:18:49 AM 42.7497 -74.9567 90° East 462 532 14,000 -2,747 Descending Boston Center
Sun 10:19:13 AM 42.7514 -74.8889 88° East 402 463 12,900 -2,400 Descending Boston Center
Sun 10:19:49 AM 42.7508 -74.8067 90° East 420 483 11,600 -1,889 Descending Boston Center
Sun 10:20:07 AM 42.7519 -74.7617 88° East 385 443 11,200 -590 Descending Boston Center
Sun 10:20:50 AM 42.7497 -74.6597 92° East 391 450 11,000 -197 Descending Boston Center
Sun 10:21:08 AM 42.7506 -74.6172 88° East 378 435 11,000  Level Boston Center
Sun 10:21:50 AM 42.7522 -74.5269 89° East 382 440 11,000 -182 Level Boston Center
Sun 10:22:14 AM 42.7661 -74.4567 75° East 356 410 10,800 -492 Descending Boston Center
Sun 10:22:51 AM 42.7817 -74.3947 71° East 348 400 10,500 -787 Descending Boston Center
Sun 10:23:15 AM 42.7969 -74.3500 65° Northeast 288 331 10,000 -1,368 Descending Boston Center
Sun 10:23:48 AM 42.8083 -74.3022 72° East 304 350 9,200 -1,672 Descending Boston Center
Sun 10:24:16 AM 42.8239 -74.2433 70° East 287 330 8,300 -1,672 Descending Boston Center
Sun 10:24:49 AM 42.8247 -74.1811 89° East 288 331 7,500 -1,574 Descending Boston Center
Sun 10:25:17 AM 42.8256 -74.1331 89° East 296 341 6,700 -1,574 Descending Boston Center
Sun 10:25:50 AM 42.8306 -74.0736 83° East 288 331 5,900 -1,600 Descending Boston Center
Sun 10:26:17 AM 42.8311 -74.0228 89° East 290 334 5,100 -931 Descending Boston Center
Sun 10:26:48 AM 42.8361 -73.9633 83° East 288 331 5,000 -97 Descending Boston Center
Sun 10:27:19 AM 42.8347 -73.9125 92° East 285 328 5,000  Level Boston Center
Sun 10:27:49 AM 42.8375 -73.8586 86° East 288 331 5,000 -300 Level Boston Center
Sun 10:28:19 AM 42.8361 -73.8075 92° East 268 308 4,700 -800 Descending Boston Center
Sun 10:28:49 AM 42.8386 -73.7594 86° East 280 322 4,200 -889 Descending Boston Center
Sun 10:29:13 AM 42.8392 -73.7311 88° East 224 258 3,900 -197 Descending Boston Center
Sun 10:29:50 AM 42.8397 -73.6831 89° East 243 280 4,000 98 Climbing Boston Center
Sun 10:30:14 AM 42.8400 -73.6436 89° East 206 237 4,000  Level Boston Center
Sun 10:30:50 AM 42.8406 -73.5981 89° East 204 235 4,000  Level Boston Center
Sun 10:31:20 AM 42.8242 -73.5694 128° Southeast 194 223 4,000  Level Boston Center
Sun 10:31:48 AM 42.8078 -73.5494 138° Southeast 182 209 4,000 -194 Level Boston Center
Sun 10:32:22 AM 42.7806 -73.5575 192° South 176 203 3,800 -689 Descending Boston Center
Sun 10:32:49 AM 42.7697 -73.5828 240° Southwest 115 132 3,300 -900 Descending Boston Center
Sun 10:33:22 AM 42.7675 -73.6139 264° West 155 178 2,900 -700 Descending Boston Center
Sun 10:33:49 AM 42.7650 -73.6364 261° West 135 155 2,600 -689 Descending Boston Center
Sun 10:34:23 AM 42.7606 -73.6731 261° West 160 184 2,200 -742 Descending Boston Center
Sun 10:35:18 AM 42.7558 -73.7181 262° West 129 148 1,500 -764 Descending Boston Center

Login

Don't have an account? Register now (free) for customized features, flight alerts, and more!